createdAt,value
2023-04-17T00:01:55.408Z,10.36
2023-04-17T00:04:23.354Z,10.35
2023-04-17T00:06:53.855Z,10.38
2023-04-17T00:09:21.382Z,10.35
2023-04-17T00:11:52.013Z,10.35
2023-04-17T00:14:19.643Z,10.36
2023-04-17T00:16:47.277Z,10.39
2023-04-17T00:19:14.809Z,10.39
2023-04-17T00:21:45.133Z,10.39
2023-04-17T00:24:15.238Z,10.46
2023-04-17T00:26:45.681Z,10.42
2023-04-17T00:29:13.379Z,10.40
2023-04-17T00:31:40.964Z,10.37
2023-04-17T00:34:08.325Z,10.35
2023-04-17T00:36:35.680Z,10.33
2023-04-17T00:39:02.904Z,10.33
2023-04-17T00:41:30.449Z,10.35
2023-04-17T00:43:57.690Z,10.26
2023-04-17T00:46:25.391Z,10.21
2023-04-17T00:48:52.738Z,10.21
2023-04-17T00:51:20.268Z,10.21
2023-04-17T00:53:48.624Z,10.16
2023-04-17T00:56:16.000Z,10.10
2023-04-17T00:58:43.836Z,10.07
2023-04-17T01:01:11.554Z,10.05
2023-04-17T01:03:38.905Z,9.99
2023-04-17T01:06:06.787Z,10.03
2023-04-17T01:08:42.344Z,10.01
2023-04-17T01:11:12.569Z,9.94
2023-04-17T01:13:50.994Z,9.82
2023-04-17T01:16:20.405Z,9.75
2023-04-17T01:18:48.608Z,9.70
2023-04-17T01:21:16.618Z,9.73
2023-04-17T01:23:46.962Z,9.68
2023-04-17T01:26:20.997Z,9.64
2023-04-17T01:28:57.619Z,9.61
2023-04-17T01:31:27.678Z,9.56
2023-04-17T01:34:01.149Z,9.53
2023-04-17T01:36:28.518Z,9.48
2023-04-17T01:38:55.815Z,9.44
2023-04-17T01:41:24.163Z,9.38
2023-04-17T01:43:51.489Z,9.35
2023-04-17T01:46:18.901Z,9.29
2023-04-17T01:48:46.683Z,9.24
2023-04-17T01:51:15.418Z,9.21
2023-04-17T01:53:42.641Z,9.23
2023-04-17T01:56:09.991Z,9.17
2023-04-17T01:58:37.641Z,9.09
2023-04-17T02:01:05.684Z,9.09
2023-04-17T02:03:33.322Z,9.05
2023-04-17T02:06:00.832Z,9.08
2023-04-17T02:08:29.690Z,9.07
2023-04-17T02:10:59.129Z,8.96
2023-04-17T02:13:26.515Z,8.85
2023-04-17T02:15:53.935Z,8.71
2023-04-17T02:18:21.350Z,8.58
2023-04-17T02:20:48.772Z,8.55
2023-04-17T02:23:16.193Z,8.53
2023-04-17T02:25:43.633Z,8.47
2023-04-17T02:28:10.899Z,8.42
2023-04-17T02:30:38.168Z,8.40
2023-04-17T02:33:05.659Z,8.39
2023-04-17T02:35:34.037Z,8.29
2023-04-17T02:38:01.381Z,8.26
2023-04-17T02:40:28.750Z,8.29
2023-04-17T02:43:01.503Z,8.28
2023-04-17T02:45:29.662Z,8.31
2023-04-17T02:47:57.347Z,8.31
2023-04-17T02:50:24.962Z,8.22
2023-04-17T02:53:02.766Z,8.18
2023-04-17T02:55:30.304Z,8.15
2023-04-17T02:57:57.455Z,8.11
2023-04-17T03:00:26.229Z,8.14
2023-04-17T03:02:53.915Z,8.05
2023-04-17T03:05:23.216Z,7.99
2023-04-17T03:07:52.058Z,7.92
2023-04-17T03:10:19.633Z,7.87
2023-04-17T03:12:47.493Z,7.79
2023-04-17T03:15:14.912Z,7.83
2023-04-17T03:17:42.740Z,7.78
2023-04-17T03:20:10.311Z,7.78
2023-04-17T03:22:37.953Z,7.75
2023-04-17T03:25:09.421Z,7.70
2023-04-17T03:27:46.699Z,7.71
2023-04-17T03:30:15.134Z,7.71
2023-04-17T03:32:46.515Z,7.64
2023-04-17T03:35:13.720Z,7.57
2023-04-17T03:37:44.968Z,7.54
2023-04-17T03:40:13.430Z,7.54
2023-04-17T03:42:43.971Z,7.46
2023-04-17T03:45:11.564Z,7.43
2023-04-17T03:47:39.069Z,7.35
2023-04-17T03:50:07.696Z,7.35
2023-04-17T03:52:40.333Z,7.37
2023-04-17T03:55:08.371Z,7.38
2023-04-17T03:57:35.811Z,7.27
2023-04-17T04:00:06.925Z,7.16
2023-04-17T04:02:46.708Z,7.16
2023-04-17T04:05:18.045Z,7.24
2023-04-17T04:07:45.653Z,7.26
2023-04-17T04:10:18.383Z,7.23
2023-04-17T04:12:45.656Z,7.15
2023-04-17T04:15:14.316Z,7.08
2023-04-17T04:17:42.088Z,6.99
2023-04-17T04:20:10.782Z,7.01
2023-04-17T04:22:37.992Z,6.95
2023-04-17T04:25:07.695Z,6.91
2023-04-17T04:27:49.804Z,6.81
2023-04-17T04:30:25.609Z,6.84
2023-04-17T04:33:01.179Z,6.78
2023-04-17T04:35:30.485Z,6.77
2023-04-17T04:38:02.312Z,6.81
2023-04-17T04:40:38.178Z,6.82
2023-04-17T04:43:07.174Z,6.80
2023-04-17T04:45:41.737Z,6.76
2023-04-17T04:48:09.005Z,6.78
2023-04-17T04:50:36.279Z,6.77
2023-04-17T04:53:03.450Z,6.82
2023-04-17T04:55:45.144Z,6.88
2023-04-17T04:58:13.181Z,6.86
2023-04-17T05:00:40.630Z,6.84
2023-04-17T05:03:14.766Z,6.83
2023-04-17T05:05:43.320Z,6.87
2023-04-17T05:08:13.911Z,6.90
2023-04-17T05:10:41.698Z,6.96
2023-04-17T05:13:10.288Z,6.99
2023-04-17T05:15:40.054Z,6.99
2023-04-17T05:18:08.086Z,7.06
2023-04-17T05:20:37.715Z,7.06
2023-04-17T05:23:05.996Z,7.11
2023-04-17T05:25:33.303Z,7.17
2023-04-17T05:28:04.139Z,7.24
2023-04-17T05:30:32.589Z,7.26
2023-04-17T05:33:11.530Z,7.24
2023-04-17T05:35:46.872Z,7.33
2023-04-17T05:38:14.293Z,7.38
2023-04-17T05:40:41.690Z,7.51
2023-04-17T05:43:12.453Z,7.62
2023-04-17T05:45:41.749Z,7.72
2023-04-17T05:48:10.993Z,7.70
2023-04-17T05:50:38.251Z,7.74
2023-04-17T05:53:06.942Z,7.86
2023-04-17T05:55:39.883Z,7.95
2023-04-17T06:00:45.600Z,8.16
2023-04-17T06:03:19.178Z,8.27
2023-04-17T06:05:49.179Z,8.33
2023-04-17T06:08:17.256Z,8.42
2023-04-17T06:10:45.984Z,8.51
2023-04-17T06:13:13.578Z,8.61
2023-04-17T06:15:45.423Z,8.71
2023-04-17T06:18:15.973Z,8.77
2023-04-17T06:20:46.032Z,8.79
2023-04-17T06:23:13.515Z,8.90
2023-04-17T06:25:40.816Z,9.02
2023-04-17T06:28:08.179Z,9.14
2023-04-17T06:30:35.715Z,9.18
2023-04-17T06:33:03.891Z,9.33
2023-04-17T06:35:31.555Z,9.40
2023-04-17T06:38:08.998Z,9.50
2023-04-17T06:40:36.586Z,9.58
2023-04-17T06:43:06.205Z,9.72
2023-04-17T06:45:37.871Z,9.80
2023-04-17T06:48:07.239Z,9.92
2023-04-17T06:50:34.524Z,9.98
2023-04-17T06:53:01.792Z,10.08
2023-04-17T06:55:28.943Z,10.40
2023-04-17T06:57:56.196Z,10.43
2023-04-17T07:00:23.741Z,10.52
2023-04-17T07:02:51.504Z,10.67
2023-04-17T07:05:18.826Z,10.67
2023-04-17T07:07:45.983Z,10.74
2023-04-17T07:10:15.673Z,10.79
2023-04-17T07:12:42.892Z,10.87
2023-04-17T07:15:11.192Z,11.13
2023-04-17T07:17:38.448Z,11.17
2023-04-17T07:20:07.954Z,11.21
2023-04-17T07:22:35.623Z,11.33
2023-04-17T07:25:03.166Z,11.56
2023-04-17T07:27:30.439Z,11.90
2023-04-17T07:29:57.653Z,12.19
2023-04-17T07:32:24.921Z,12.38
2023-04-17T07:34:52.857Z,12.58
2023-04-17T07:37:20.138Z,12.44
2023-04-17T07:39:52.788Z,12.44
2023-04-17T07:42:20.131Z,12.37
2023-04-17T07:44:48.565Z,12.32
2023-04-17T07:47:15.825Z,12.25
2023-04-17T07:49:46.525Z,12.43
2023-04-17T07:52:15.389Z,12.72
2023-04-17T07:54:42.583Z,12.72
2023-04-17T07:57:09.729Z,12.71
2023-04-17T07:59:37.045Z,12.75
2023-04-17T08:02:04.286Z,12.82
2023-04-17T08:04:32.982Z,12.93
2023-04-17T08:07:00.533Z,13.14
2023-04-17T08:09:28.613Z,13.10
2023-04-17T08:11:57.953Z,13.05
2023-04-17T08:14:25.849Z,13.12
2023-04-17T08:16:53.126Z,13.19
2023-04-17T08:19:20.622Z,13.26
2023-04-17T08:21:49.513Z,13.60
2023-04-17T08:24:19.713Z,13.58
2023-04-17T08:26:48.003Z,13.66
2023-04-17T08:29:15.859Z,13.65
2023-04-17T08:31:43.308Z,13.69
2023-04-17T08:34:15.115Z,13.65
2023-04-17T08:36:43.097Z,13.71
2023-04-17T08:39:12.286Z,13.95
2023-04-17T08:42:05.318Z,14.07
2023-04-17T08:44:32.497Z,14.30
2023-04-17T08:46:59.707Z,14.26
2023-04-17T08:49:32.022Z,14.30
2023-04-17T08:52:05.901Z,14.26
2023-04-17T08:54:35.194Z,14.20
2023-04-17T08:57:07.039Z,14.29
2023-04-17T08:59:34.383Z,14.50
2023-04-17T09:02:07.506Z,14.69
2023-04-17T09:04:44.544Z,14.58
2023-04-17T09:07:14.408Z,14.57
2023-04-17T09:09:54.511Z,14.56
2023-04-17T09:12:26.152Z,14.82
2023-04-17T09:14:53.589Z,15.05
2023-04-17T09:17:21.652Z,15.25
2023-04-17T09:20:09.241Z,15.24
2023-04-17T09:22:40.218Z,15.62
2023-04-17T09:25:23.132Z,15.57
2023-04-17T09:27:50.508Z,15.56
2023-04-17T09:30:17.646Z,15.66
2023-04-17T09:32:44.947Z,15.92
2023-04-17T09:35:25.960Z,15.97
2023-04-17T09:37:59.375Z,15.53
2023-04-17T09:40:40.752Z,15.38
2023-04-17T09:43:11.185Z,15.79
2023-04-17T09:45:42.446Z,15.86
2023-04-17T09:48:12.689Z,15.99
2023-04-17T09:50:40.354Z,16.24
2023-04-17T09:53:08.705Z,16.00
2023-04-17T09:55:38.064Z,15.59
2023-04-17T09:58:07.893Z,15.62
2023-04-17T10:00:37.724Z,16.19
2023-04-17T10:03:07.317Z,16.25
2023-04-17T10:05:35.755Z,16.43
2023-04-17T10:08:04.232Z,16.45
2023-04-17T10:10:36.239Z,16.77
2023-04-17T10:13:08.486Z,16.78
2023-04-17T10:15:38.458Z,16.46
2023-04-17T10:18:25.282Z,16.40
2023-04-17T10:20:54.234Z,16.71
2023-04-17T10:23:34.017Z,16.19
2023-04-17T10:26:24.799Z,16.58
2023-04-17T10:28:54.116Z,16.96
2023-04-17T10:32:02.472Z,16.91
2023-04-17T10:34:38.173Z,17.12
2023-04-17T10:37:05.378Z,17.48
2023-04-17T10:39:58.585Z,17.08
2023-04-17T10:42:26.627Z,17.09
2023-04-17T10:45:01.505Z,17.17
2023-04-17T10:47:38.945Z,17.25
2023-04-17T10:50:10.140Z,17.61
2023-04-17T10:52:41.976Z,17.38
2023-04-17T10:55:23.493Z,17.04
2023-04-17T10:57:59.276Z,17.06
2023-04-17T11:00:39.621Z,17.71
2023-04-17T11:03:07.766Z,17.62
2023-04-17T11:05:35.843Z,17.94
2023-04-17T11:08:03.319Z,19.71
2023-04-17T11:10:35.362Z,20.67
2023-04-17T11:13:02.632Z,19.95
2023-04-17T11:15:34.162Z,23.74
2023-04-17T11:18:03.423Z,24.60
2023-04-17T11:20:33.135Z,24.33
2023-04-17T11:23:06.244Z,22.59
2023-04-17T11:25:34.776Z,22.34
2023-04-17T11:28:06.490Z,20.26
2023-04-17T11:30:36.521Z,22.09
2023-04-17T11:33:07.647Z,22.79
2023-04-17T11:35:41.078Z,22.31
2023-04-17T11:38:12.733Z,23.16
2023-04-17T11:40:53.183Z,20.62
2023-04-17T11:43:25.472Z,20.45
2023-04-17T11:45:56.512Z,18.94
2023-04-17T11:48:29.338Z,18.20
2023-04-17T11:51:04.022Z,18.78
2023-04-17T11:53:34.445Z,16.54
2023-04-17T11:56:18.684Z,17.84
2023-04-17T11:58:58.018Z,18.30
2023-04-17T12:01:28.926Z,17.94
2023-04-17T12:03:58.609Z,18.21
2023-04-17T12:06:38.916Z,16.90
2023-04-17T12:09:07.079Z,17.17
2023-04-17T12:11:35.794Z,17.38
2023-04-17T12:14:05.403Z,17.28
2023-04-17T12:16:32.706Z,17.60
2023-04-17T12:18:59.882Z,17.20
2023-04-17T12:21:27.029Z,17.23
2023-04-17T12:23:54.221Z,17.44
2023-04-17T12:26:21.571Z,17.78
2023-04-17T12:28:48.706Z,17.63
2023-04-17T12:31:15.911Z,17.74
2023-04-17T12:33:43.097Z,18.08
2023-04-17T12:36:10.702Z,17.90
2023-04-17T12:38:38.023Z,18.02
2023-04-17T12:41:05.303Z,18.03
2023-04-17T12:43:33.520Z,17.88
2023-04-17T12:46:01.431Z,18.50
2023-04-17T12:48:30.784Z,18.93
2023-04-17T12:50:59.493Z,18.57
2023-04-17T12:53:26.628Z,17.96
2023-04-17T12:55:54.088Z,17.82
2023-04-17T12:58:21.359Z,17.74
2023-04-17T13:00:48.670Z,18.53
2023-04-17T13:03:15.965Z,19.30
2023-04-17T13:05:44.336Z,19.45
2023-04-17T13:08:15.175Z,17.74
2023-04-17T13:10:42.874Z,17.94
2023-04-17T13:13:10.553Z,17.86
2023-04-17T13:15:37.787Z,18.16
2023-04-17T13:18:05.309Z,18.14
2023-04-17T13:20:32.624Z,17.17
2023-04-17T13:22:59.856Z,17.84
2023-04-17T13:25:27.026Z,18.75
2023-04-17T13:27:55.597Z,19.32
2023-04-17T13:30:22.990Z,18.60
2023-04-17T13:32:50.428Z,18.24
2023-04-17T13:35:18.099Z,17.70
2023-04-17T13:37:45.272Z,17.73
2023-04-17T13:40:13.164Z,18.51
2023-04-17T13:42:40.848Z,19.15
2023-04-17T13:45:08.785Z,18.45
2023-04-17T13:47:36.255Z,18.94
2023-04-17T13:50:04.007Z,20.64
2023-04-17T13:52:31.267Z,24.09
2023-04-17T13:54:58.590Z,20.02
2023-04-17T13:57:25.799Z,21.17
2023-04-17T13:59:52.965Z,22.43
2023-04-17T14:02:20.273Z,22.24
2023-04-17T14:04:47.746Z,19.31
2023-04-17T14:07:15.446Z,22.31
2023-04-17T14:09:42.716Z,20.72
2023-04-17T14:12:09.910Z,24.97
2023-04-17T14:14:37.213Z,28.33
2023-04-17T14:17:04.426Z,29.14
2023-04-17T14:19:31.892Z,22.83
2023-04-17T14:21:59.600Z,26.07
2023-04-17T14:24:26.726Z,25.16
2023-04-17T14:26:53.947Z,25.02
2023-04-17T14:29:21.344Z,21.99
2023-04-17T14:31:48.745Z,23.15
2023-04-17T14:34:16.066Z,19.83
2023-04-17T14:36:43.799Z,21.92
2023-04-17T14:39:11.639Z,21.58
2023-04-17T14:41:39.146Z,19.06
2023-04-17T14:44:06.514Z,18.65
2023-04-17T14:46:33.780Z,21.14
2023-04-17T14:49:01.012Z,22.13
2023-04-17T14:51:28.395Z,23.59
2023-04-17T14:53:55.770Z,24.87
2023-04-17T14:56:23.022Z,23.83
2023-04-17T14:58:50.353Z,24.97
2023-04-17T15:01:17.627Z,23.71
2023-04-17T15:03:47.895Z,22.42
2023-04-17T15:06:16.903Z,22.48
2023-04-17T15:08:45.957Z,25.72
2023-04-17T15:11:13.226Z,22.69
2023-04-17T15:13:40.617Z,25.27
2023-04-17T15:16:10.621Z,24.13
2023-04-17T15:18:39.396Z,21.20
2023-04-17T15:21:07.192Z,21.91
2023-04-17T15:23:35.290Z,22.54
2023-04-17T15:26:02.662Z,21.65
2023-04-17T15:28:29.863Z,23.70
2023-04-17T15:30:57.070Z,26.98
2023-04-17T15:33:24.252Z,21.41
2023-04-17T15:35:59.847Z,24.12
2023-04-17T15:38:27.877Z,25.14
2023-04-17T15:40:55.557Z,26.24
2023-04-17T15:43:22.981Z,25.76
2023-04-17T15:45:51.770Z,20.69
2023-04-17T15:48:19.242Z,21.41
2023-04-17T15:50:46.428Z,23.44
2023-04-17T15:53:13.580Z,23.96
2023-04-17T15:55:41.212Z,21.07
2023-04-17T15:58:08.541Z,22.07
2023-04-17T16:00:35.750Z,25.26
2023-04-17T16:03:03.413Z,22.32
2023-04-17T16:05:32.434Z,24.03
2023-04-17T16:08:01.424Z,22.68
2023-04-17T16:10:28.725Z,22.44
2023-04-17T16:12:55.888Z,22.29
2023-04-17T16:15:23.259Z,21.48
2023-04-17T16:17:50.478Z,22.10
2023-04-17T16:20:17.665Z,23.03
2023-04-17T16:22:44.806Z,21.53
2023-04-17T16:25:12.176Z,20.85
2023-04-17T16:27:40.313Z,20.05
2023-04-17T16:30:10.394Z,21.01
2023-04-17T16:32:37.754Z,22.63
2023-04-17T16:35:06.235Z,24.16
2023-04-17T16:37:33.415Z,24.48
2023-04-17T16:40:04.612Z,24.74
2023-04-17T16:42:32.673Z,22.24
2023-04-17T16:45:00.186Z,22.66
2023-04-17T16:47:29.833Z,23.44
2023-04-17T16:49:57.403Z,23.32
2023-04-17T16:52:24.640Z,24.02
2023-04-17T16:54:51.777Z,24.42
2023-04-17T16:57:18.949Z,22.23
2023-04-17T16:59:46.087Z,22.23
2023-04-17T17:02:14.010Z,20.50
2023-04-17T17:04:41.376Z,21.38
2023-04-17T17:07:09.203Z,20.72
2023-04-17T17:09:36.397Z,21.89
2023-04-17T17:12:03.816Z,21.63
2023-04-17T17:14:30.991Z,20.36
2023-04-17T17:16:58.357Z,20.17
2023-04-17T17:19:25.700Z,19.42
2023-04-17T17:21:55.036Z,20.37
2023-04-17T17:24:22.294Z,19.38
2023-04-17T17:26:49.431Z,19.26
2023-04-17T17:29:16.853Z,19.71
2023-04-17T17:31:44.305Z,18.31
2023-04-17T17:34:25.124Z,18.48
2023-04-17T17:36:53.070Z,18.83
2023-04-17T17:39:21.830Z,19.03
2023-04-17T17:41:49.619Z,19.00
2023-04-17T17:44:16.963Z,18.84
2023-04-17T17:46:44.367Z,18.26
2023-04-17T17:49:11.695Z,18.11
2023-04-17T17:51:38.876Z,17.76
2023-04-17T17:54:06.123Z,17.30
2023-04-17T17:56:33.280Z,17.52
2023-04-17T17:59:00.575Z,17.53
2023-04-17T18:01:27.753Z,17.51
2023-04-17T18:03:55.307Z,17.38
2023-04-17T18:06:22.836Z,17.23
2023-04-17T18:08:49.977Z,17.04
2023-04-17T18:11:17.128Z,16.96
2023-04-17T18:13:44.473Z,16.85
2023-04-17T18:16:11.676Z,16.71
2023-04-17T18:18:39.030Z,16.57
2023-04-17T18:21:09.524Z,16.46
2023-04-17T18:23:36.747Z,16.32
2023-04-17T18:26:04.347Z,16.21
2023-04-17T18:28:32.628Z,16.07
2023-04-17T18:31:00.008Z,15.94
2023-04-17T18:33:28.972Z,15.88
2023-04-17T18:35:56.317Z,15.82
2023-04-17T18:38:23.511Z,15.71
2023-04-17T18:40:59.167Z,15.62
2023-04-17T18:43:29.095Z,15.60
2023-04-17T18:45:56.253Z,15.48
2023-04-17T18:48:24.504Z,15.39
2023-04-17T18:50:51.963Z,15.31
2023-04-17T18:53:19.084Z,15.25
2023-04-17T18:55:46.220Z,15.15
2023-04-17T18:58:13.335Z,15.03
2023-04-17T19:00:40.568Z,14.97
2023-04-17T19:03:07.819Z,14.88
2023-04-17T19:05:35.134Z,14.79
2023-04-17T19:08:02.501Z,14.73
2023-04-17T19:10:30.016Z,14.66
2023-04-17T19:12:57.203Z,14.66
2023-04-17T19:15:24.684Z,14.54
2023-04-17T19:17:52.919Z,14.48
2023-04-17T19:20:20.209Z,14.40
2023-04-17T19:22:47.513Z,14.37
2023-04-17T19:25:14.671Z,14.38
2023-04-17T19:27:41.826Z,14.37
2023-04-17T19:30:11.138Z,14.40
2023-04-17T19:32:38.771Z,14.39
2023-04-17T19:35:07.251Z,14.34
2023-04-17T19:37:34.432Z,14.31
2023-04-17T19:40:06.368Z,14.28
2023-04-17T19:42:38.537Z,14.23
2023-04-17T19:45:07.259Z,14.17
2023-04-17T19:47:34.441Z,14.14
2023-04-17T19:50:01.637Z,14.12
2023-04-17T19:52:28.782Z,14.08
2023-04-17T19:54:55.980Z,14.08
2023-04-17T19:57:26.162Z,14.07
2023-04-17T19:59:53.297Z,14.05
2023-04-17T20:02:21.512Z,14.02
2023-04-17T20:04:48.677Z,13.97
2023-04-17T20:07:15.816Z,13.95
2023-04-17T20:09:43.475Z,13.91
2023-04-17T20:12:10.728Z,13.93
2023-04-17T20:14:37.893Z,13.97
2023-04-17T20:17:05.171Z,13.95
2023-04-17T20:19:32.577Z,13.88
2023-04-17T20:21:59.677Z,13.88
2023-04-17T20:24:26.960Z,13.92
2023-04-17T20:26:55.551Z,13.94
2023-04-17T20:29:23.134Z,13.96
2023-04-17T20:31:50.549Z,13.96
2023-04-17T20:34:18.075Z,13.88
2023-04-17T20:36:45.524Z,13.79
2023-04-17T20:39:14.137Z,13.77
2023-04-17T20:41:41.863Z,13.77
2023-04-17T20:44:09.037Z,13.81
2023-04-17T20:46:36.211Z,13.75
2023-04-17T20:49:03.916Z,13.73
2023-04-17T20:51:32.340Z,13.70
2023-04-17T20:53:59.512Z,13.69
2023-04-17T20:56:26.713Z,13.66
2023-04-17T20:58:53.915Z,13.66
2023-04-17T21:01:21.286Z,13.66
2023-04-17T21:03:48.609Z,13.56
2023-04-17T21:06:15.992Z,13.49
2023-04-17T21:08:43.259Z,13.48
2023-04-17T21:11:10.790Z,13.55
2023-04-17T21:13:38.067Z,13.45
2023-04-17T21:16:09.598Z,13.39
2023-04-17T21:18:37.028Z,13.39
2023-04-17T21:21:04.486Z,13.41
2023-04-17T21:23:31.829Z,13.30
2023-04-17T21:25:59.140Z,13.26
2023-04-17T21:28:26.374Z,13.27
2023-04-17T21:30:53.666Z,13.23
2023-04-17T21:33:20.958Z,13.25
2023-04-17T21:35:48.254Z,13.26
2023-04-17T21:38:15.614Z,13.29
2023-04-17T21:40:50.989Z,13.28
2023-04-17T21:43:19.037Z,13.29
2023-04-17T21:45:46.660Z,13.26
2023-04-17T21:48:17.042Z,13.19
2023-04-17T21:50:44.368Z,13.13
2023-04-17T21:53:11.624Z,13.06
2023-04-17T21:55:39.058Z,13.00
2023-04-17T21:58:07.211Z,13.01
2023-04-17T22:00:34.450Z,13.03
2023-04-17T22:03:01.705Z,13.04
2023-04-17T22:05:29.127Z,12.96
2023-04-17T22:07:56.298Z,12.86
2023-04-17T22:10:24.386Z,12.71
2023-04-17T22:12:52.418Z,12.66
2023-04-17T22:15:19.768Z,12.63
2023-04-17T22:17:47.109Z,12.62
2023-04-17T22:20:14.358Z,12.55
2023-04-17T22:22:41.548Z,12.51
2023-04-17T22:25:09.735Z,12.48
2023-04-17T22:27:36.884Z,12.41
2023-04-17T22:30:06.064Z,12.34
2023-04-17T22:32:36.556Z,12.25
2023-04-17T22:35:04.347Z,12.17
2023-04-17T22:37:31.556Z,12.09
2023-04-17T22:39:58.735Z,12.04
2023-04-17T22:42:25.891Z,11.95
2023-04-17T22:44:53.177Z,11.86
2023-04-17T22:47:21.788Z,11.85
2023-04-17T22:49:49.382Z,11.76
2023-04-17T22:52:16.508Z,11.69
2023-04-17T22:54:43.698Z,11.57
2023-04-17T22:57:11.493Z,11.33
2023-04-17T22:59:40.515Z,11.22
2023-04-17T23:02:08.234Z,11.23
2023-04-17T23:04:35.662Z,11.22
2023-04-17T23:07:02.892Z,11.17
2023-04-17T23:09:30.178Z,11.17
2023-04-17T23:11:57.554Z,11.12
2023-04-17T23:14:26.127Z,11.05
2023-04-17T23:16:53.394Z,11.05
2023-04-17T23:19:22.333Z,11.04
2023-04-17T23:21:49.555Z,11.05
2023-04-17T23:24:16.669Z,11.07
2023-04-17T23:26:44.005Z,11.00
2023-04-17T23:29:11.154Z,10.92
2023-04-17T23:31:38.487Z,10.92
2023-04-17T23:34:05.829Z,10.90
2023-04-17T23:36:32.992Z,10.86
2023-04-17T23:39:00.190Z,10.85
2023-04-17T23:41:27.932Z,10.89
2023-04-17T23:43:58.064Z,10.91
2023-04-17T23:46:25.630Z,10.87
2023-04-17T23:48:52.865Z,10.82
2023-04-17T23:51:20.788Z,10.84
2023-04-17T23:53:49.082Z,10.90
2023-04-17T23:56:18.012Z,10.87
2023-04-17T23:58:45.200Z,10.80
